sensor_id;sensor_type;location;lat;lon;timestamp;temperature;humidity
62581;DHT22;48640;48.770;9.148;2023-07-13T21:17:32;21.30;52.70
62581;DHT22;48640;48.770;9.148;2023-07-13T21:19:59;21.00;53.00
62581;DHT22;48640;48.770;9.148;2023-07-13T21:22:29;21.00;53.00
62581;DHT22;48640;48.770;9.148;2023-07-13T21:24:56;21.00;53.30
62581;DHT22;48640;48.770;9.148;2023-07-13T21:27:22;21.00;53.50
62581;DHT22;48640;48.770;9.148;2023-07-13T21:29:49;21.00;53.60
62581;DHT22;48640;48.770;9.148;2023-07-13T21:32:22;21.10;53.50
62581;DHT22;48640;48.770;9.148;2023-07-13T21:34:52;21.10;53.40
62581;DHT22;48640;48.770;9.148;2023-07-13T21:37:19;21.00;53.00
62581;DHT22;48640;48.770;9.148;2023-07-13T21:39:51;21.00;53.10
62581;DHT22;48640;48.770;9.148;2023-07-13T21:42:18;20.90;53.40
62581;DHT22;48640;48.770;9.148;2023-07-13T21:44:45;20.90;53.80
62581;DHT22;48640;48.770;9.148;2023-07-13T21:47:13;20.90;54.10
62581;DHT22;48640;48.770;9.148;2023-07-13T21:49:41;20.90;54.10
62581;DHT22;48640;48.770;9.148;2023-07-13T21:52:15;20.80;54.20
62581;DHT22;48640;48.770;9.148;2023-07-13T21:54:42;20.80;54.40
62581;DHT22;48640;48.770;9.148;2023-07-13T21:57:13;20.70;55.10
62581;DHT22;48640;48.770;9.148;2023-07-13T21:59:40;20.70;54.10
62581;DHT22;48640;48.770;9.148;2023-07-13T22:02:10;20.60;54.30
62581;DHT22;48640;48.770;9.148;2023-07-13T22:04:38;20.60;54.30
62581;DHT22;48640;48.770;9.148;2023-07-13T22:07:09;20.50;54.30
62581;DHT22;48640;48.770;9.148;2023-07-13T22:09:37;20.50;54.70
62581;DHT22;48640;48.770;9.148;2023-07-13T22:12:05;20.60;54.90
62581;DHT22;48640;48.770;9.148;2023-07-13T22:14:34;20.60;54.80
62581;DHT22;48640;48.770;9.148;2023-07-13T22:17:01;20.60;54.90
62581;DHT22;48640;48.770;9.148;2023-07-13T22:19:29;20.60;54.90
62581;DHT22;48640;48.770;9.148;2023-07-13T22:21:56;20.50;54.80
62581;DHT22;48640;48.770;9.148;2023-07-13T22:24:26;20.40;55.00
62581;DHT22;48640;48.770;9.148;2023-07-13T22:26:54;20.40;55.10
62581;DHT22;48640;48.770;9.148;2023-07-13T22:29:24;20.40;55.90
62581;DHT22;48640;48.770;9.148;2023-07-13T22:31:53;20.30;55.70
62581;DHT22;48640;48.770;9.148;2023-07-13T22:34:20;20.30;56.10
62581;DHT22;48640;48.770;9.148;2023-07-13T22:36:55;20.30;55.70
62581;DHT22;48640;48.770;9.148;2023-07-13T22:39:25;20.30;55.90
62581;DHT22;48640;48.770;9.148;2023-07-13T22:41:54;20.20;55.50
62581;DHT22;48640;48.770;9.148;2023-07-13T22:44:23;20.20;55.80
62581;DHT22;48640;48.770;9.148;2023-07-13T22:46:51;20.10;56.20
62581;DHT22;48640;48.770;9.148;2023-07-13T22:49:21;20.10;55.60
62581;DHT22;48640;48.770;9.148;2023-07-13T22:51:50;20.10;55.90
62581;DHT22;48640;48.770;9.148;2023-07-13T22:54:17;20.10;55.90
62581;DHT22;48640;48.770;9.148;2023-07-13T22:56:44;20.10;56.30
62581;DHT22;48640;48.770;9.148;2023-07-13T22:59:12;20.00;56.60
62581;DHT22;48640;48.770;9.148;2023-07-13T23:01:40;19.90;56.30
62581;DHT22;48640;48.770;9.148;2023-07-13T23:04:14;19.90;56.40
62581;DHT22;48640;48.770;9.148;2023-07-13T23:06:43;19.80;56.60
62581;DHT22;48640;48.770;9.148;2023-07-13T23:09:13;19.80;57.30
62581;DHT22;48640;48.770;9.148;2023-07-13T23:11:41;19.80;57.50
62581;DHT22;48640;48.770;9.148;2023-07-13T23:14:07;19.70;57.50
62581;DHT22;48640;48.770;9.148;2023-07-13T23:16:36;19.70;57.80
62581;DHT22;48640;48.770;9.148;2023-07-13T23:19:03;19.70;57.50
62581;DHT22;48640;48.770;9.148;2023-07-13T23:21:30;19.70;57.50
62581;DHT22;48640;48.770;9.148;2023-07-13T23:23:59;19.70;57.40
62581;DHT22;48640;48.770;9.148;2023-07-13T23:26:26;19.60;58.00
62581;DHT22;48640;48.770;9.148;2023-07-13T23:28:53;19.50;58.50
62581;DHT22;48640;48.770;9.148;2023-07-13T23:31:23;19.50;58.50
62581;DHT22;48640;48.770;9.148;2023-07-13T23:33:52;19.50;58.80
62581;DHT22;48640;48.770;9.148;2023-07-13T23:36:20;19.50;58.70
62581;DHT22;48640;48.770;9.148;2023-07-13T23:38:47;19.50;58.80
62581;DHT22;48640;48.770;9.148;2023-07-13T23:41:17;19.50;58.80
62581;DHT22;48640;48.770;9.148;2023-07-13T23:43:44;19.50;58.80
62581;DHT22;48640;48.770;9.148;2023-07-13T23:46:23;19.50;58.80
62581;DHT22;48640;48.770;9.148;2023-07-13T23:48:54;19.50;58.70
62581;DHT22;48640;48.770;9.148;2023-07-13T23:51:23;19.60;59.00
62581;DHT22;48640;48.770;9.148;2023-07-13T23:53:50;19.50;59.00
62581;DHT22;48640;48.770;9.148;2023-07-13T23:56:18;19.50;59.00
62581;DHT22;48640;48.770;9.148;2023-07-13T23:58:45;19.50;58.80
